Time;durP1;ratioP1;P1;durP2;ratioP2;P2;SDS_P1;SDS_P2;PMS_P1;PMS_P2;Temp;Humidity;BMP_temperature;BMP_pressure;BME280_temperature;BME280_humidity;BME280_pressure;Samples;Min_cycle;Max_cycle;Signal;HPM_P1;HPM_P2
2021/12/07 00:01:49;;;;;;;39.63;24.83;;;1.10;99.90;;;0.99;75.84;100827.88;4958204;28;20611;-65
2021/12/07 00:04:18;;;;;;;37.40;22.10;;;1.10;99.90;;;0.84;77.01;100823.94;4958160;28;20231;-67
2021/12/07 00:06:46;;;;;;;36.45;22.75;;;1.00;99.90;;;1.10;76.12;100822.41;4957183;29;20627;-66
2021/12/07 00:09:18;;;;;;;35.15;24.00;;;1.10;99.90;;;0.94;76.29;100816.81;4958428;28;20212;-67
2021/12/07 00:11:50;;;;;;;30.35;21.75;;;1.10;99.90;;;0.95;76.22;100821.16;4958557;29;20214;-65
2021/12/07 00:14:24;;;;;;;39.78;24.50;;;1.10;99.90;;;0.90;76.75;100820.72;4958797;28;20687;-66
2021/12/07 00:16:55;;;;;;;31.25;22.10;;;1.00;99.90;;;0.81;76.78;100810.94;4957966;28;20640;-65
2021/12/07 00:19:24;;;;;;;34.13;23.20;;;1.00;99.90;;;0.66;77.57;100807.84;4957688;28;20246;-65
2021/12/07 00:21:53;;;;;;;35.08;21.58;;;0.90;99.90;;;0.59;77.68;100801.38;4957624;29;20642;-65
2021/12/07 00:24:21;;;;;;;40.28;24.65;;;0.80;99.90;;;0.51;78.02;100795.09;4958079;28;20192;-63
2021/12/07 00:26:50;;;;;;;41.08;25.52;;;0.70;99.90;;;0.43;78.49;100793.16;4957637;28;20621;-67
2021/12/07 00:29:20;;;;;;;39.95;24.92;;;0.60;99.90;;;0.38;78.64;100790.91;4957985;28;20303;-66
2021/12/07 00:32:06;;;;;;;34.38;24.42;;;0.60;99.90;;;0.37;78.34;100780.38;4957612;28;20181;-66
2021/12/07 00:34:45;;;;;;;31.40;22.48;;;0.50;99.90;;;0.33;78.30;100774.50;4957571;29;20176;-63
2021/12/07 00:37:14;;;;;;;40.33;24.10;;;0.50;99.90;;;0.21;78.56;100778.25;4958155;28;20226;-65
2021/12/07 00:39:42;;;;;;;33.92;24.10;;;0.40;99.90;;;-0.05;78.47;100769.94;4957918;28;20216;-66
2021/12/07 00:42:12;;;;;;;36.78;25.02;;;0.30;99.90;;;0.03;78.61;100768.44;4957696;28;20185;-63
2021/12/07 00:44:42;;;;;;;36.78;22.27;;;0.20;99.90;;;-0.13;78.86;100774.28;4957758;28;20172;-66
2021/12/07 00:47:10;;;;;;;37.58;24.70;;;0.10;99.90;;;0.02;77.36;100770.25;4957582;28;20185;-65
2021/12/07 00:49:39;;;;;;;35.85;23.27;;;0.10;99.90;;;-0.15;78.48;100778.91;4956644;28;20223;-65
2021/12/07 00:52:08;;;;;;;37.45;22.00;;;0.10;99.90;;;-0.20;78.79;100768.69;4956092;29;20215;-65
2021/12/07 00:54:38;;;;;;;33.95;22.90;;;0.10;99.90;;;-0.24;78.08;100769.91;4956697;28;20176;-66
2021/12/07 00:57:07;;;;;;;35.78;22.42;;;0.00;99.90;;;-0.40;78.94;100764.28;4956493;28;20236;-66
2021/12/07 00:59:40;;;;;;;33.63;22.65;;;0.00;99.90;;;-0.43;79.63;100775.16;4955634;29;20318;-65
2021/12/07 01:02:09;;;;;;;36.35;23.52;;;-0.10;99.90;;;-0.36;79.68;100771.00;4955305;29;20196;-65
2021/12/07 01:04:37;;;;;;;37.78;23.10;;;-0.10;99.90;;;-0.47;79.97;100766.63;4956111;28;20195;-65
2021/12/07 01:07:17;;;;;;;34.78;21.67;;;-0.20;99.90;;;-0.37;79.46;100768.47;4956949;28;20588;-65
2021/12/07 01:24:39;;;;;;;33.20;22.00;;;-0.10;99.90;;;-0.27;79.35;100764.03;4955497;28;20311;-65
2021/12/07 01:26:26;;;;;;;34.05;20.38;;;0.10;99.90;;;0.10;77.55;100754.44;4955470;28;20227;-65
2021/12/07 01:28:54;;;;;;;28.85;18.17;;;0.20;99.90;;;0.02;77.47;100743.66;4955106;29;20267;-66
2021/12/07 01:31:30;;;;;;;29.73;19.75;;;0.20;99.90;;;-0.16;78.13;100739.97;4955528;29;20243;-65
2021/12/07 01:34:18;;;;;;;31.20;20.70;;;0.10;99.90;;;-0.15;78.66;100741.66;4954957;29;20203;-65
2021/12/07 01:37:06;;;;;;;30.38;19.58;;;0.00;99.90;;;-0.12;78.60;100734.25;4957135;28;20184;-65
2021/12/07 01:39:57;;;;;;;29.83;18.92;;;0.00;99.90;;;-0.10;78.19;100728.81;4956452;29;20216;-65
2021/12/07 01:45:49;;;;;;;28.10;19.95;;;0.00;99.90;;;-0.23;78.46;100715.75;4955072;29;20204;-64
2021/12/07 01:51:15;;;;;;;28.60;19.13;;;0.00;99.90;;;-0.27;78.63;100692.22;4954198;29;20196;-65
2021/12/07 02:01:59;;;;;;;30.50;17.42;;;-0.20;99.90;;;-0.50;78.82;100681.84;4956629;28;20179;-66
2021/12/07 02:04:30;;;;;;;26.42;18.63;;;-0.30;99.90;;;-0.46;78.00;100672.59;4956342;28;20188;-65
2021/12/07 02:06:59;;;;;;;24.88;17.55;;;-0.30;99.90;;;-0.40;77.44;100673.88;4954821;29;20206;-65
2021/12/07 02:09:29;;;;;;;27.83;18.75;;;-0.30;99.90;;;-0.57;77.90;100678.03;4954923;29;20216;-66
2021/12/07 02:12:02;;;;;;;30.65;19.73;;;-0.30;99.90;;;-0.36;77.25;100671.78;4955125;29;20231;-66
2021/12/07 02:14:31;;;;;;;26.52;18.17;;;-0.20;99.90;;;-0.43;78.40;100677.63;4954510;29;20223;-66
2021/12/07 02:17:06;;;;;;;31.75;18.90;;;-0.30;99.90;;;-0.40;77.56;100667.72;4954391;29;20692;-64
2021/12/07 02:19:39;;;;;;;29.45;19.80;;;-0.20;99.90;;;-0.54;78.06;100664.50;4954149;29;20279;-66
2021/12/07 02:22:10;;;;;;;27.05;18.23;;;-0.30;99.90;;;-0.36;78.45;100671.78;4954680;28;20184;-66
2021/12/07 02:24:47;;;;;;;31.50;20.38;;;-0.20;99.90;;;-0.36;78.13;100669.13;4954830;29;20207;-66
2021/12/07 02:27:16;;;;;;;32.55;21.25;;;-0.20;99.90;;;-0.48;77.73;100655.94;4954656;29;20587;-65
2021/12/07 02:29:45;;;;;;;28.75;18.65;;;-0.30;99.90;;;-0.45;77.42;100663.66;4954730;29;20208;-66
2021/12/07 02:32:13;;;;;;;29.38;19.23;;;-0.30;99.90;;;-0.50;78.05;100657.06;4954166;29;20184;-64
2021/12/07 02:34:52;;;;;;;30.92;18.70;;;-0.30;99.90;;;-0.54;77.57;100645.88;4954417;29;20708;-66
2021/12/07 02:37:24;;;;;;;26.42;19.33;;;-0.30;99.90;;;-0.53;77.05;100650.19;4954325;29;20188;-65
2021/12/07 02:39:54;;;;;;;24.63;18.17;;;-0.30;99.90;;;-0.47;76.82;100646.16;4953505;29;20322;-64
2021/12/07 02:42:23;;;;;;;26.67;18.05;;;-0.40;99.90;;;-0.59;77.01;100641.94;4954607;29;20196;-65
2021/12/07 02:44:52;;;;;;;27.25;15.98;;;-0.40;99.90;;;-0.61;77.04;100647.41;4955430;28;20181;-65
2021/12/07 02:47:21;;;;;;;24.75;17.67;;;-0.40;99.90;;;-0.56;77.13;100647.81;4954136;29;20286;-64
2021/12/07 02:49:50;;;;;;;28.75;18.55;;;-0.40;99.90;;;-0.59;77.56;100642.78;4955538;28;20212;-66
2021/12/07 02:52:19;;;;;;;28.02;18.27;;;-0.40;99.90;;;-0.57;77.42;100640.81;4954256;29;20188;-65
2021/12/07 02:54:50;;;;;;;28.13;17.85;;;-0.40;99.90;;;-0.44;76.50;100646.72;4954307;29;20216;-65
2021/12/07 02:57:25;;;;;;;23.58;16.83;;;-0.40;99.90;;;-0.51;77.00;100652.72;4955273;28;20169;-64
2021/12/07 03:00:00;;;;;;;26.52;17.27;;;-0.40;99.90;;;-0.54;77.70;100656.53;4953719;28;20230;-64
2021/12/07 03:02:34;;;;;;;26.08;15.88;;;-0.40;99.90;;;-0.63;77.73;100665.28;4954204;29;20199;-63
2021/12/07 03:05:14;;;;;;;26.67;18.52;;;-0.40;99.90;;;-0.50;77.87;100659.72;4953864;29;20196;-65
2021/12/07 03:07:54;;;;;;;27.23;18.17;;;-0.40;99.90;;;-0.48;77.69;100666.56;4953390;29;20215;-66
2021/12/07 03:27:05;;;;;;;29.58;19.92;;;-0.30;99.90;;;-0.63;78.92;100673.25;4953566;29;20200;-66
2021/12/07 03:29:35;;;;;;;33.70;21.65;;;-0.40;99.90;;;-0.67;78.65;100666.53;4955023;28;20216;-66
2021/12/07 03:32:05;;;;;;;31.48;22.77;;;-0.40;99.90;;;-0.64;79.10;100663.63;4954616;28;20219;-65
2021/12/07 03:34:34;;;;;;;32.17;19.88;;;-0.40;99.90;;;-0.52;78.88;100670.50;4952622;29;20756;-65
2021/12/07 03:37:02;;;;;;;36.42;23.67;;;-0.40;99.90;;;-0.65;79.22;100672.56;4953353;29;20197;-65
2021/12/07 03:39:31;;;;;;;33.45;20.70;;;-0.50;99.90;;;-0.57;79.06;100667.41;4953729;29;20220;-65
2021/12/07 03:42:00;;;;;;;35.03;22.80;;;-0.50;99.90;;;-0.63;79.09;100665.28;4953976;29;20200;-65
2021/12/07 03:44:30;;;;;;;34.50;23.38;;;-0.50;99.90;;;-0.71;79.16;100665.13;4953579;29;20567;-65
2021/12/07 03:46:59;;;;;;;32.20;21.40;;;-0.50;99.90;;;-0.78;79.57;100671.97;4953150;29;20195;-64
2021/12/07 03:49:27;;;;;;;36.00;21.77;;;-0.60;99.90;;;-0.67;79.74;100674.50;4954362;29;20220;-64
2021/12/07 03:51:56;;;;;;;36.38;22.30;;;-0.50;99.90;;;-0.74;79.91;100680.50;4952912;29;20276;-65
2021/12/07 03:54:24;;;;;;;34.35;21.85;;;-0.60;99.90;;;-0.75;80.57;100669.03;4952742;29;20193;-65
2021/12/07 03:56:53;;;;;;;32.60;22.50;;;-0.60;99.90;;;-0.70;80.06;100668.63;4953151;29;20287;-66
2021/12/07 03:59:21;;;;;;;36.50;24.23;;;-0.60;99.90;;;-0.78;80.41;100674.63;4952980;29;20227;-65
2021/12/07 04:01:52;;;;;;;39.85;22.85;;;-0.60;99.90;;;-0.74;79.86;100676.03;4953241;28;20219;-65
2021/12/07 04:04:21;;;;;;;36.88;21.30;;;-0.60;99.90;;;-0.73;79.63;100683.03;4953122;29;20196;-66
2021/12/07 04:06:50;;;;;;;38.58;25.15;;;-0.60;99.90;;;-0.75;79.82;100673.50;4952943;28;20215;-64
2021/12/07 04:09:20;;;;;;;36.35;22.73;;;-0.60;99.90;;;-0.78;79.88;100677.28;4952913;29;20572;-64
2021/12/07 04:11:49;;;;;;;42.08;24.38;;;-0.60;99.90;;;-0.61;80.01;100667.81;4954562;28;20204;-65
2021/12/07 04:14:17;;;;;;;36.70;22.58;;;-0.60;99.90;;;-0.60;79.66;100673.00;4953211;29;20627;-65
2021/12/07 04:16:46;;;;;;;36.35;22.50;;;-0.50;99.90;;;-0.62;79.97;100666.97;4953269;29;20195;-64
2021/12/07 04:19:16;;;;;;;31.92;21.88;;;-0.50;99.90;;;-0.48;79.11;100671.91;4952902;29;20224;-66
2021/12/07 04:21:46;;;;;;;38.83;23.60;;;-0.40;99.90;;;-0.37;78.93;100667.44;4953243;29;20224;-63
2021/12/07 04:24:14;;;;;;;37.53;24.90;;;-0.40;99.90;;;-0.44;79.72;100667.16;4954403;28;20195;-64
2021/12/07 04:26:43;;;;;;;36.60;22.33;;;-0.40;99.90;;;-0.34;79.44;100667.19;4954316;28;20239;-66
2021/12/07 04:29:11;;;;;;;38.22;24.33;;;-0.30;99.90;;;-0.36;79.01;100663.81;4954141;28;20627;-66
2021/12/07 04:31:39;;;;;;;37.10;23.63;;;-0.30;99.90;;;-0.39;79.11;100666.75;4954289;28;20583;-64
2021/12/07 04:34:08;;;;;;;36.55;23.55;;;-0.30;99.90;;;-0.28;78.73;100666.59;4954402;28;20271;-65
2021/12/07 04:36:38;;;;;;;36.50;22.73;;;-0.20;99.90;;;-0.29;78.47;100667.63;4955126;28;20184;-65
2021/12/07 04:39:08;;;;;;;31.92;24.40;;;-0.20;99.90;;;-0.28;78.16;100653.31;4953681;29;20287;-66
2021/12/07 04:41:37;;;;;;;37.80;25.83;;;-0.20;99.90;;;-0.26;78.36;100651.38;4952740;29;20604;-67
2021/12/07 04:44:06;;;;;;;35.28;22.98;;;-0.20;99.90;;;-0.25;78.08;100653.06;4954053;28;20195;-66
2021/12/07 04:46:40;;;;;;;34.42;24.67;;;-0.20;99.90;;;-0.33;78.87;100648.41;4956208;28;20180;-67
2021/12/07 04:49:43;;;;;;;39.15;26.38;;;-0.30;99.90;;;-0.28;79.01;100653.31;4957293;28;20219;-66
2021/12/07 04:57:46;;;;;;;42.70;24.52;;;-0.20;99.90;;;-0.18;77.88;100667.47;4957129;28;20180;-65
2021/12/07 05:00:19;;;;;;;37.90;24.23;;;-0.10;99.90;;;-0.24;78.06;100673.34;4957058;28;20298;-66
2021/12/07 05:02:53;;;;;;;41.55;24.15;;;-0.20;99.90;;;-0.17;77.95;100679.78;4956739;28;20180;-65
2021/12/07 05:05:28;;;;;;;39.50;24.50;;;-0.10;99.90;;;-0.09;78.17;100675.44;4956395;28;20269;-66
2021/12/07 05:08:02;;;;;;;37.25;25.60;;;-0.10;99.90;;;-0.11;78.16;100674.75;4956435;28;20509;-65
2021/12/07 05:10:34;;;;;;;45.70;25.90;;;0.00;99.90;;;0.03;77.50;100673.50;4956020;28;20718;-65
2021/12/07 05:13:24;;;;;;;38.22;26.48;;;0.00;99.90;;;-0.07;77.44;100667.34;4956274;28;20172;-66
2021/12/07 05:16:08;;;;;;;40.38;26.10;;;0.00;99.90;;;-0.12;77.82;100666.91;4956776;28;20208;-65
2021/12/07 05:18:56;;;;;;;42.50;26.15;;;0.00;99.90;;;-0.13;77.68;100667.88;4955974;28;20232;-65
2021/12/07 05:24:18;;;;;;;38.97;25.15;;;0.00;99.90;;;-0.09;77.30;100648.00;4956208;29;20208;-65
2021/12/07 05:37:57;;;;;;;42.83;25.77;;;-0.10;99.90;;;-0.34;77.91;100665.38;4956383;28;20176;-65
2021/12/07 05:40:30;;;;;;;38.60;25.95;;;-0.20;99.90;;;-0.36;78.06;100663.81;4956551;28;20216;-64
2021/12/07 05:43:00;;;;;;;48.95;26.77;;;-0.20;99.90;;;-0.31;78.34;100672.22;4956769;28;20264;-65
2021/12/07 05:45:33;;;;;;;46.17;27.88;;;-0.20;99.90;;;-0.40;78.26;100675.69;4957022;28;20184;-65
2021/12/07 05:48:04;;;;;;;41.17;26.52;;;-0.20;99.90;;;-0.32;78.57;100676.69;4956564;28;20208;-64
2021/12/07 05:50:36;;;;;;;41.30;26.55;;;-0.20;99.90;;;-0.48;78.89;100674.56;4959712;23;20611;-70
2021/12/07 05:53:08;;;;;;;41.95;27.35;;;-0.30;99.90;;;-0.43;78.40;100684.78;4938223;29;20177;-68
2021/12/07 05:55:39;;;;;;;39.85;27.20;;;-0.30;99.90;;;-0.30;77.92;100687.19;4938497;29;20169;-68
2021/12/07 05:58:13;;;;;;;48.25;29.08;;;-0.30;99.90;;;-0.49;78.20;100685.34;4937928;29;20190;-68
2021/12/07 06:00:44;;;;;;;42.67;27.02;;;-0.30;99.90;;;-0.55;78.62;100686.72;4938189;29;20353;-68
2021/12/07 06:03:14;;;;;;;54.35;32.53;;;-0.30;99.90;;;-0.71;79.32;100688.19;4938156;29;20530;-68
2021/12/07 06:05:44;;;;;;;46.72;28.27;;;-0.50;99.90;;;-0.72;79.18;100692.66;4936645;29;20199;-69
2021/12/07 06:08:13;;;;;;;48.75;29.02;;;-0.50;99.90;;;-0.69;78.98;100697.72;4937750;29;20196;-69
2021/12/07 06:10:43;;;;;;;46.47;29.88;;;-0.50;99.90;;;-0.59;78.55;100698.59;4937358;29;20693;-69
2021/12/07 06:13:11;;;;;;;44.60;30.40;;;-0.50;99.90;;;-0.70;78.96;100701.34;4940689;29;20540;-69
2021/12/07 06:15:44;;;;;;;51.25;31.67;;;-0.50;99.90;;;-0.73;78.96;100706.94;4939965;29;20207;-69
2021/12/07 06:18:13;;;;;;;43.97;29.27;;;-0.50;99.90;;;-0.72;79.37;100710.44;4937310;29;20189;-68
2021/12/07 06:20:42;;;;;;;45.05;28.45;;;-0.60;99.90;;;-0.80;79.25;100708.44;4937047;29;20224;-69
2021/12/07 06:23:15;;;;;;;46.85;29.77;;;-0.60;99.90;;;-0.70;79.33;100704.00;4938652;29;20206;-70
2021/12/07 06:25:49;;;;;;;46.05;30.50;;;-0.60;99.90;;;-0.76;78.94;100707.19;4938415;29;20260;-69
2021/12/07 06:28:19;;;;;;;45.05;29.95;;;-0.60;99.90;;;-0.77;79.32;100708.16;4957220;29;20180;-69
2021/12/07 06:30:49;;;;;;;44.22;28.80;;;-0.60;99.90;;;-0.76;78.86;100704.53;4957935;28;20212;-70
2021/12/07 06:33:21;;;;;;;48.17;28.58;;;-0.60;99.90;;;-0.79;78.71;100707.47;4956854;29;20180;-69
2021/12/07 06:35:56;;;;;;;46.97;30.83;;;-0.60;99.90;;;-0.81;78.80;100706.75;4939866;28;20208;-69
2021/12/07 06:38:26;;;;;;;48.25;31.73;;;-0.60;99.90;;;-0.80;78.85;100713.75;4938411;29;20226;-69
2021/12/07 06:40:58;;;;;;;41.60;26.73;;;-0.60;99.90;;;-0.86;78.69;100708.97;4937883;29;20220;-69
2021/12/07 06:43:27;;;;;;;52.88;28.40;;;-0.70;99.90;;;-0.96;79.58;100703.63;4936996;29;20193;-69
2021/12/07 06:45:55;;;;;;;51.15;32.63;;;-0.70;99.90;;;-0.88;78.79;100709.13;4941757;29;20519;-69
2021/12/07 06:48:24;;;;;;;43.03;29.05;;;-0.70;99.90;;;-0.80;79.42;100708.44;4935942;29;20201;-69
2021/12/07 06:50:53;;;;;;;57.47;33.80;;;-0.70;99.90;;;-0.91;79.37;100708.53;4936570;29;20720;-69
2021/12/07 06:53:22;;;;;;;49.47;33.38;;;-0.70;99.90;;;-0.84;78.80;100712.34;4938083;29;20765;-69
2021/12/07 06:55:51;;;;;;;45.38;30.52;;;-0.70;99.90;;;-0.83;79.16;100718.50;4937112;29;20212;-69
2021/12/07 06:58:20;;;;;;;51.05;30.60;;;-0.70;99.90;;;-0.75;78.79;100719.53;4952019;29;20563;-69
2021/12/07 07:00:49;;;;;;;48.75;31.40;;;-0.70;99.90;;;-0.79;78.71;100715.44;4956599;28;20779;-69
2021/12/07 07:03:23;;;;;;;59.35;31.40;;;-0.60;99.90;;;-0.74;78.44;100723.03;4956231;28;20218;-68
2021/12/07 07:05:53;;;;;;;56.70;29.70;;;-0.60;99.90;;;-0.71;78.63;100720.94;4949103;28;20229;-69
2021/12/07 07:08:21;;;;;;;48.35;31.48;;;-0.60;99.90;;;-0.69;78.07;100718.16;4959185;28;20212;-69
2021/12/07 07:10:50;;;;;;;52.47;31.38;;;-0.60;99.90;;;-0.60;78.45;100720.84;4959597;28;20219;-67
2021/12/07 07:13:20;;;;;;;52.03;32.30;;;-0.50;99.90;;;-0.51;78.32;100735.13;4957710;29;20375;-68
2021/12/07 07:15:49;;;;;;;54.78;32.20;;;-0.50;99.90;;;-0.51;77.80;100729.81;4937338;28;20193;-68
2021/12/07 07:18:18;;;;;;;46.08;29.83;;;-0.40;99.90;;;-0.50;77.57;100740.31;4931414;28;20314;-68
2021/12/07 07:20:48;;;;;;;52.00;32.03;;;-0.40;99.90;;;-0.43;77.15;100751.22;4935906;29;20212;-69
2021/12/07 07:23:17;;;;;;;48.05;30.13;;;-0.40;99.90;;;-0.43;77.02;100746.75;4936149;29;20654;-68
2021/12/07 07:25:46;;;;;;;51.58;30.73;;;-0.30;99.90;;;-0.31;77.39;100746.66;4934873;29;20188;-68
2021/12/07 07:28:15;;;;;;;47.53;29.88;;;-0.40;99.90;;;-0.31;76.97;100754.66;4935710;29;20220;-68
2021/12/07 07:30:44;;;;;;;47.92;30.63;;;-0.30;99.90;;;-0.38;77.21;100748.16;4934874;29;20308;-70
2021/12/07 07:33:13;;;;;;;47.88;31.92;;;-0.30;99.90;;;-0.28;77.16;100762.34;4938050;29;20193;-70
2021/12/07 07:35:41;;;;;;;52.88;29.77;;;-0.20;99.90;;;-0.43;77.10;100760.06;4936273;28;20200;-68
2021/12/07 07:38:10;;;;;;;49.72;30.42;;;-0.30;99.90;;;-0.43;77.01;100744.09;4950787;28;20669;-68
2021/12/07 07:40:38;;;;;;;48.45;30.23;;;-0.30;99.90;;;-0.36;77.01;100751.53;4936019;29;20231;-68
2021/12/07 07:43:07;;;;;;;46.60;30.70;;;-0.30;99.90;;;-0.30;76.40;100759.00;4936657;29;20524;-68
2021/12/07 07:45:44;;;;;;;46.67;30.65;;;-0.30;99.90;;;-0.33;76.49;100759.25;4934838;29;20192;-68
2021/12/07 07:48:17;;;;;;;55.78;30.50;;;-0.30;99.90;;;-0.34;76.85;100762.91;4937556;29;20193;-68
2021/12/07 07:50:47;;;;;;;43.85;28.38;;;-0.30;99.90;;;-0.32;76.25;100761.78;4934492;29;20315;-69
2021/12/07 07:53:17;;;;;;;44.95;28.92;;;-0.30;99.90;;;-0.41;76.66;100767.06;4935588;29;20221;-67
2021/12/07 07:55:50;;;;;;;45.50;30.10;;;-0.30;99.90;;;-0.38;76.89;100764.13;4952582;28;20207;-68
2021/12/07 07:58:19;;;;;;;47.75;30.95;;;-0.30;99.90;;;-0.40;77.11;100768.75;4940045;28;20188;-68
2021/12/07 08:00:50;;;;;;;45.28;28.48;;;-0.30;99.90;;;-0.38;76.55;100772.94;4935853;29;20209;-69
2021/12/07 08:03:19;;;;;;;39.42;27.77;;;-0.30;99.90;;;-0.33;76.44;100770.72;4930359;29;20244;-69
2021/12/07 08:05:48;;;;;;;52.90;32.10;;;-0.30;99.90;;;-0.35;76.55;100772.69;4935140;29;20283;-68
2021/12/07 08:08:21;;;;;;;45.10;29.77;;;-0.30;99.90;;;-0.17;76.46;100770.22;4931998;29;20271;-68
2021/12/07 08:10:51;;;;;;;49.33;28.65;;;-0.20;99.90;;;-0.23;75.85;100770.75;4915190;29;20232;-68
2021/12/07 08:13:22;;;;;;;44.15;26.83;;;-0.20;99.90;;;-0.13;75.47;100782.25;4945949;29;20593;-68
2021/12/07 08:15:52;;;;;;;44.47;27.50;;;-0.10;99.90;;;-0.04;75.72;100776.13;4936628;28;20205;-68
2021/12/07 08:18:22;;;;;;;36.85;26.80;;;0.00;99.90;;;-0.03;75.54;100775.13;4938833;29;20527;-68
2021/12/07 08:20:51;;;;;;;42.47;27.27;;;0.00;99.90;;;-0.06;75.54;100783.41;4955369;29;20354;-69
2021/12/07 08:23:22;;;;;;;36.40;24.83;;;0.00;99.90;;;-0.05;75.32;100793.06;4952241;29;20180;-69
2021/12/07 08:25:50;;;;;;;42.83;27.73;;;0.00;99.90;;;-0.16;75.69;100788.69;4945814;29;20197;-68
2021/12/07 08:28:19;;;;;;;43.13;26.00;;;0.00;99.90;;;-0.14;75.45;100785.88;4938702;29;20569;-68
2021/12/07 08:30:51;;;;;;;43.58;26.63;;;0.00;99.90;;;-0.06;75.66;100789.56;4939328;29;20701;-69
2021/12/07 08:33:21;;;;;;;35.47;25.40;;;-0.10;99.90;;;0.12;75.26;100786.22;4939507;29;20177;-68
2021/12/07 08:35:50;;;;;;;43.97;30.00;;;0.10;99.90;;;0.10;75.05;100781.03;4939078;29;20188;-68
2021/12/07 08:38:19;;;;;;;40.13;25.83;;;0.10;99.90;;;0.09;74.71;100775.88;4937921;29;20193;-69
2021/12/07 08:40:53;;;;;;;44.58;28.48;;;0.10;99.90;;;0.17;74.79;100779.53;4938622;29;20256;-69
2021/12/07 08:43:25;;;;;;;40.58;28.23;;;0.20;99.90;;;0.16;75.09;100772.50;4940740;29;20177;-69
2021/12/07 08:45:57;;;;;;;38.28;26.35;;;0.20;99.90;;;0.17;74.99;100779.53;4950013;29;20243;-69
2021/12/07 08:48:28;;;;;;;38.25;27.05;;;0.20;99.90;;;0.21;74.51;100780.91;4944202;29;20193;-68
2021/12/07 08:50:59;;;;;;;39.42;24.60;;;0.20;99.90;;;0.25;74.40;100778.81;4939762;29;20647;-69
2021/12/07 08:53:29;;;;;;;36.90;26.17;;;0.20;99.90;;;0.34;74.41;100784.16;4937673;29;20256;-69
2021/12/07 09:01:34;;;;;;;38.83;26.50;;;0.40;99.90;;;0.41;74.10;100785.28;4938878;29;20216;-69
2021/12/07 09:04:06;;;;;;;40.97;24.77;;;0.40;99.90;;;0.25;73.83;100784.13;4937751;29;20225;-68
2021/12/07 09:06:35;;;;;;;36.92;25.33;;;0.40;99.90;;;0.37;74.06;100791.88;4939403;29;20533;-68
2021/12/07 09:09:04;;;;;;;37.35;24.95;;;0.40;99.90;;;0.51;73.74;100790.59;4941055;29;20209;-68
2021/12/07 09:11:32;;;;;;;36.47;23.63;;;0.50;99.90;;;0.56;73.05;100790.19;4938662;29;20204;-69
2021/12/07 09:14:01;;;;;;;38.63;25.65;;;0.50;99.90;;;0.56;73.14;100793.69;4935929;29;20220;-68
2021/12/07 09:16:30;;;;;;;35.90;23.85;;;0.60;99.90;;;0.56;73.16;100790.19;4941551;29;20297;-68
2021/12/07 09:18:58;;;;;;;32.40;23.08;;;0.60;99.90;;;0.61;72.65;100788.78;4956839;28;20214;-68
2021/12/07 09:21:28;;;;;;;40.92;26.38;;;0.60;99.90;;;0.67;72.44;100782.06;4956539;28;20246;-68
2021/12/07 09:23:57;;;;;;;37.00;25.23;;;0.60;99.90;;;0.60;72.93;100783.59;4954202;28;20264;-67
2021/12/07 09:26:25;;;;;;;40.00;25.92;;;0.60;99.90;;;0.69;72.74;100774.75;4937298;29;20669;-67
2021/12/07 09:28:57;;;;;;;38.50;25.70;;;0.70;99.90;;;0.79;72.45;100778.25;4954417;29;20204;-68
2021/12/07 09:31:26;;;;;;;39.92;23.90;;;0.70;99.90;;;0.70;72.39;100787.09;4954093;28;20251;-68
2021/12/07 09:33:55;;;;;;;35.50;26.40;;;0.80;99.90;;;0.56;72.85;100783.03;4950583;28;20223;-67
2021/12/07 09:36:25;;;;;;;39.72;26.23;;;0.70;99.90;;;0.52;72.70;100786.13;4951684;29;20221;-69
2021/12/07 09:38:57;;;;;;;37.13;26.00;;;0.60;99.90;;;0.54;72.57;100784.16;4949538;29;20530;-68
2021/12/07 09:41:27;;;;;;;41.92;25.88;;;0.60;99.90;;;0.55;73.21;100785.84;4950994;29;20248;-68
2021/12/07 09:43:56;;;;;;;41.97;26.95;;;0.60;99.90;;;0.65;72.91;100786.69;4950977;29;20286;-68
2021/12/07 09:46:25;;;;;;;40.47;26.45;;;0.60;99.90;;;0.60;73.25;100791.59;4944322;29;20205;-68
2021/12/07 09:48:54;;;;;;;43.88;28.60;;;0.60;99.90;;;0.40;73.43;100802.22;4918221;29;20182;-68
2021/12/07 09:51:27;;;;;;;37.42;23.33;;;0.60;99.90;;;0.42;73.01;100794.13;4918551;29;20217;-67
2021/12/07 09:53:59;;;;;;;39.47;26.85;;;0.50;99.90;;;0.43;73.57;100801.97;4919993;29;20193;-68
2021/12/07 09:56:29;;;;;;;43.80;27.13;;;0.50;99.90;;;0.50;73.22;100788.91;4945550;29;20192;-69
2021/12/07 09:59:00;;;;;;;39.72;26.55;;;0.50;99.90;;;0.63;72.74;100786.00;4937552;29;20560;-67
2021/12/07 10:01:31;;;;;;;40.10;25.75;;;0.60;99.90;;;0.64;73.25;100790.31;4937512;29;20209;-68
2021/12/07 10:04:00;;;;;;;40.92;30.40;;;0.70;99.90;;;0.70;73.10;100787.09;4935426;29;20451;-67
2021/12/07 10:06:29;;;;;;;38.58;27.83;;;0.70;99.90;;;0.73;73.00;100792.13;4939009;29;20196;-68
2021/12/07 10:08:59;;;;;;;40.58;29.58;;;0.70;99.90;;;0.88;72.37;100796.88;4950979;28;20193;-68
2021/12/07 10:11:28;;;;;;;35.72;27.38;;;0.80;99.90;;;0.86;72.26;100806.03;4945679;29;20200;-67
2021/12/07 10:13:57;;;;;;;38.85;27.25;;;0.90;99.90;;;0.76;72.59;100790.03;4938549;28;20669;-67
2021/12/07 10:16:26;;;;;;;44.28;28.08;;;0.80;99.90;;;0.84;72.70;100792.00;4948476;29;20184;-69
2021/12/07 10:18:58;;;;;;;34.63;24.95;;;0.80;99.90;;;0.88;72.45;100801.38;4939836;29;20188;-68
2021/12/07 10:21:38;;;;;;;40.67;25.88;;;0.80;99.90;;;0.78;72.38;100800.53;4940876;29;20244;-68
2021/12/07 10:24:11;;;;;;;41.38;28.75;;;0.80;99.90;;;0.72;72.75;100801.13;4940776;29;20185;-68
2021/12/07 10:26:48;;;;;;;43.17;26.60;;;0.80;99.90;;;0.80;72.36;100799.44;4947629;29;20187;-68
2021/12/07 10:29:22;;;;;;;40.60;27.60;;;0.80;99.90;;;0.75;72.60;100799.00;4944914;29;20236;-69
2021/12/07 10:31:56;;;;;;;42.00;28.02;;;0.80;99.90;;;0.84;72.71;100795.50;4946224;28;20686;-68
2021/12/07 10:34:29;;;;;;;42.95;29.00;;;0.80;99.90;;;1.00;72.42;100800.25;4936270;29;20197;-68
2021/12/07 10:37:09;;;;;;;41.08;28.65;;;0.90;99.90;;;0.94;72.38;100800.81;4946246;29;20243;-67
2021/12/07 10:39:42;;;;;;;44.35;30.42;;;0.90;99.90;;;0.98;72.19;100796.88;4951009;29;20220;-69
2021/12/07 10:42:17;;;;;;;42.28;29.58;;;1.00;99.90;;;0.92;72.59;100786.78;4946489;28;20193;-69
2021/12/07 10:45:03;;;;;;;39.78;26.95;;;0.90;99.90;;;0.87;73.09;100784.53;4946018;28;20180;-68
2021/12/07 10:47:31;;;;;;;37.72;25.10;;;0.90;99.90;;;1.00;72.27;100784.25;4949991;28;20221;-69
2021/12/07 10:50:03;;;;;;;46.97;28.02;;;1.00;99.90;;;0.93;72.21;100776.97;4957696;28;20220;-70
2021/12/07 10:52:35;;;;;;;45.15;29.60;;;0.90;99.90;;;1.00;72.14;100773.59;4941849;29;20669;-69
2021/12/07 10:55:15;;;;;;;45.78;28.42;;;1.00;99.90;;;1.18;72.01;100765.69;4952706;28;20287;-70
2021/12/07 10:57:50;;;;;;;46.63;29.73;;;1.10;99.90;;;1.11;71.63;100765.44;4949113;28;20196;-69
2021/12/07 11:00:24;;;;;;;39.53;27.25;;;1.10;99.90;;;1.17;71.76;100764.00;4949959;28;20211;-69
2021/12/07 11:02:57;;;;;;;37.88;27.42;;;1.10;99.90;;;1.08;71.76;100763.06;4957251;28;20234;-69
2021/12/07 11:05:31;;;;;;;39.75;28.27;;;1.10;99.90;;;1.17;71.18;100762.19;4956554;28;20181;-69
2021/12/07 11:08:05;;;;;;;45.97;29.55;;;1.20;99.90;;;1.13;71.77;100763.47;4956328;28;20188;-69
2021/12/07 11:10:40;;;;;;;38.45;25.58;;;1.20;99.90;;;1.12;71.16;100756.44;4955423;28;20583;-69
2021/12/07 11:13:15;;;;;;;44.10;28.50;;;1.10;99.90;;;1.00;71.88;100772.75;4956188;28;20178;-70
2021/12/07 11:15:52;;;;;;;44.85;28.42;;;1.10;99.90;;;0.96;71.98;100768.69;4956005;28;20299;-69
2021/12/07 11:18:25;;;;;;;53.15;30.13;;;1.00;99.90;;;1.02;72.42;100763.63;4956333;28;20270;-69
2021/12/07 11:20:57;;;;;;;43.35;28.23;;;1.00;99.90;;;1.00;71.59;100752.28;4955801;28;20227;-68
2021/12/07 11:23:31;;;;;;;42.78;27.40;;;1.00;99.90;;;1.00;71.81;100749.63;4956375;28;20693;-70
2021/12/07 11:31:52;;;;;;;38.63;27.02;;;1.00;99.90;;;1.10;71.78;100761.09;4957359;28;20203;-70
2021/12/07 11:34:23;;;;;;;45.58;29.13;;;1.10;99.90;;;0.96;72.21;100766.03;4929011;29;20222;-69
2021/12/07 11:36:56;;;;;;;47.92;28.75;;;1.00;99.90;;;0.97;72.37;100768.53;4935309;29;20185;-68
2021/12/07 11:39:30;;;;;;;46.60;28.63;;;1.00;99.90;;;0.94;72.09;100766.16;4936034;29;20303;-69